sensor_id;sensor_type;location;lat;lon;timestamp;temperature;humidity
22212;DHT22;11275;52.488;13.462;2023-02-02T00:00:35;5.70;99.90
22212;DHT22;11275;52.488;13.462;2023-02-02T00:03:01;5.70;99.90
22212;DHT22;11275;52.488;13.462;2023-02-02T00:05:26;5.80;99.90
22212;DHT22;11275;52.488;13.462;2023-02-02T00:07:52;6.00;99.90
22212;DHT22;11275;52.488;13.462;2023-02-02T00:10:18;5.90;99.90
22212;DHT22;11275;52.488;13.462;2023-02-02T00:12:43;5.90;99.90
22212;DHT22;11275;52.488;13.462;2023-02-02T00:15:09;5.90;99.90
22212;DHT22;11275;52.488;13.462;2023-02-02T00:17:34;5.80;99.90
22212;DHT22;11275;52.488;13.462;2023-02-02T00:20:00;5.80;99.90
22212;DHT22;11275;52.488;13.462;2023-02-02T00:22:25;5.80;99.90
22212;DHT22;11275;52.488;13.462;2023-02-02T00:24:52;5.90;99.90
22212;DHT22;11275;52.488;13.462;2023-02-02T00:27:17;5.90;99.90
22212;DHT22;11275;52.488;13.462;2023-02-02T00:29:43;6.00;99.90
22212;DHT22;11275;52.488;13.462;2023-02-02T00:32:09;6.10;99.90
22212;DHT22;11275;52.488;13.462;2023-02-02T00:34:35;6.00;99.90
22212;DHT22;11275;52.488;13.462;2023-02-02T00:37:00;6.00;99.90
22212;DHT22;11275;52.488;13.462;2023-02-02T00:39:26;6.10;99.90
22212;DHT22;11275;52.488;13.462;2023-02-02T00:41:52;6.10;99.90
22212;DHT22;11275;52.488;13.462;2023-02-02T00:44:17;6.20;99.90
22212;DHT22;11275;52.488;13.462;2023-02-02T00:47:02;6.30;99.90
22212;DHT22;11275;52.488;13.462;2023-02-02T00:49:28;6.30;99.90
22212;DHT22;11275;52.488;13.462;2023-02-02T00:51:53;6.20;99.90
22212;DHT22;11275;52.488;13.462;2023-02-02T00:54:19;6.10;99.90
22212;DHT22;11275;52.488;13.462;2023-02-02T00:56:44;6.20;99.90
22212;DHT22;11275;52.488;13.462;2023-02-02T00:59:10;6.30;99.90
22212;DHT22;11275;52.488;13.462;2023-02-02T01:01:35;6.20;99.90
22212;DHT22;11275;52.488;13.462;2023-02-02T01:04:01;6.10;99.90
22212;DHT22;11275;52.488;13.462;2023-02-02T01:06:26;6.10;99.90
22212;DHT22;11275;52.488;13.462;2023-02-02T01:08:52;6.10;99.90
22212;DHT22;11275;52.488;13.462;2023-02-02T01:11:17;6.10;99.90
22212;DHT22;11275;52.488;13.462;2023-02-02T01:13:43;6.10;99.90
22212;DHT22;11275;52.488;13.462;2023-02-02T01:16:09;6.20;99.90
22212;DHT22;11275;52.488;13.462;2023-02-02T01:18:35;6.10;99.90
22212;DHT22;11275;52.488;13.462;2023-02-02T01:21:07;6.00;99.90
22212;DHT22;11275;52.488;13.462;2023-02-02T01:23:33;6.00;99.90
22212;DHT22;11275;52.488;13.462;2023-02-02T01:26:00;6.10;99.90
22212;DHT22;11275;52.488;13.462;2023-02-02T01:28:26;6.00;99.90
22212;DHT22;11275;52.488;13.462;2023-02-02T01:30:52;6.00;99.90
22212;DHT22;11275;52.488;13.462;2023-02-02T01:33:18;6.10;99.90
22212;DHT22;11275;52.488;13.462;2023-02-02T01:35:51;6.00;99.90
22212;DHT22;11275;52.488;13.462;2023-02-02T01:38:17;6.10;99.90
22212;DHT22;11275;52.488;13.462;2023-02-02T01:40:43;6.00;99.90
22212;DHT22;11275;52.488;13.462;2023-02-02T01:43:14;6.10;99.90
22212;DHT22;11275;52.488;13.462;2023-02-02T01:45:46;6.00;99.90
22212;DHT22;11275;52.488;13.462;2023-02-02T01:48:11;6.00;99.90
22212;DHT22;11275;52.488;13.462;2023-02-02T01:50:37;6.00;99.90
22212;DHT22;11275;52.488;13.462;2023-02-02T01:53:03;6.00;99.90
22212;DHT22;11275;52.488;13.462;2023-02-02T01:55:29;6.00;99.90
22212;DHT22;11275;52.488;13.462;2023-02-02T01:57:57;6.10;99.90
22212;DHT22;11275;52.488;13.462;2023-02-02T02:00:23;6.10;99.90
22212;DHT22;11275;52.488;13.462;2023-02-02T02:02:52;6.00;99.90
22212;DHT22;11275;52.488;13.462;2023-02-02T02:05:24;6.00;99.90
22212;DHT22;11275;52.488;13.462;2023-02-02T02:07:50;5.90;99.90
22212;DHT22;11275;52.488;13.462;2023-02-02T02:10:17;5.90;99.90
22212;DHT22;11275;52.488;13.462;2023-02-02T02:12:42;6.00;99.90
22212;DHT22;11275;52.488;13.462;2023-02-02T02:15:08;6.10;99.90
22212;DHT22;11275;52.488;13.462;2023-02-02T02:18:22;6.00;99.90
22212;DHT22;11275;52.488;13.462;2023-02-02T02:23:49;6.00;99.90
22212;DHT22;11275;52.488;13.462;2023-02-02T02:26:45;6.10;99.90
22212;DHT22;11275;52.488;13.462;2023-02-02T02:32:09;6.10;99.90
22212;DHT22;11275;52.488;13.462;2023-02-02T02:37:38;6.30;99.90
22212;DHT22;11275;52.488;13.462;2023-02-02T02:42:22;6.20;99.90
22212;DHT22;11275;52.488;13.462;2023-02-02T02:44:47;6.30;99.90
22212;DHT22;11275;52.488;13.462;2023-02-02T02:47:13;6.20;99.90
22212;DHT22;11275;52.488;13.462;2023-02-02T02:49:42;6.30;99.90
22212;DHT22;11275;52.488;13.462;2023-02-02T02:52:08;6.30;99.90
22212;DHT22;11275;52.488;13.462;2023-02-02T02:54:35;6.30;99.90
22212;DHT22;11275;52.488;13.462;2023-02-02T02:59:32;6.30;99.90
22212;DHT22;11275;52.488;13.462;2023-02-02T03:02:12;6.40;99.90
22212;DHT22;11275;52.488;13.462;2023-02-02T03:07:22;6.40;99.90
22212;DHT22;11275;52.488;13.462;2023-02-02T03:09:50;6.40;99.90
22212;DHT22;11275;52.488;13.462;2023-02-02T03:12:17;6.40;99.90
22212;DHT22;11275;52.488;13.462;2023-02-02T03:14:42;6.50;99.90
22212;DHT22;11275;52.488;13.462;2023-02-02T03:17:08;6.50;99.90
22212;DHT22;11275;52.488;13.462;2023-02-02T03:19:33;6.40;99.90
22212;DHT22;11275;52.488;13.462;2023-02-02T03:21:59;6.40;99.90
22212;DHT22;11275;52.488;13.462;2023-02-02T03:24:24;6.40;99.90
22212;DHT22;11275;52.488;13.462;2023-02-02T03:26:50;6.40;99.90
22212;DHT22;11275;52.488;13.462;2023-02-02T03:29:16;6.50;99.90
22212;DHT22;11275;52.488;13.462;2023-02-02T03:31:41;6.60;99.90
22212;DHT22;11275;52.488;13.462;2023-02-02T03:34:07;6.50;99.90
22212;DHT22;11275;52.488;13.462;2023-02-02T03:36:32;6.60;99.90
22212;DHT22;11275;52.488;13.462;2023-02-02T03:38:58;6.60;99.90
22212;DHT22;11275;52.488;13.462;2023-02-02T03:41:23;6.60;99.90
22212;DHT22;11275;52.488;13.462;2023-02-02T03:43:49;6.50;99.90
22212;DHT22;11275;52.488;13.462;2023-02-02T03:46:14;6.50;99.90
22212;DHT22;11275;52.488;13.462;2023-02-02T03:48:40;6.50;99.90
22212;DHT22;11275;52.488;13.462;2023-02-02T03:51:09;6.60;99.90
22212;DHT22;11275;52.488;13.462;2023-02-02T03:53:36;6.60;99.90
22212;DHT22;11275;52.488;13.462;2023-02-02T03:56:01;6.50;99.90
22212;DHT22;11275;52.488;13.462;2023-02-02T03:58:27;6.50;99.90
22212;DHT22;11275;52.488;13.462;2023-02-02T04:00:52;6.50;99.90
22212;DHT22;11275;52.488;13.462;2023-02-02T04:03:19;6.60;99.90
22212;DHT22;11275;52.488;13.462;2023-02-02T04:05:48;6.60;99.90
22212;DHT22;11275;52.488;13.462;2023-02-02T04:08:13;6.60;99.90
22212;DHT22;11275;52.488;13.462;2023-02-02T04:10:39;6.50;99.90
22212;DHT22;11275;52.488;13.462;2023-02-02T04:13:06;6.50;99.90
22212;DHT22;11275;52.488;13.462;2023-02-02T04:15:32;6.40;99.90
22212;DHT22;11275;52.488;13.462;2023-02-02T04:17:57;6.50;99.90
22212;DHT22;11275;52.488;13.462;2023-02-02T04:20:23;6.50;99.90
22212;DHT22;11275;52.488;13.462;2023-02-02T04:22:48;6.50;99.90
22212;DHT22;11275;52.488;13.462;2023-02-02T04:25:14;6.50;99.90
22212;DHT22;11275;52.488;13.462;2023-02-02T04:27:40;6.50;99.90
22212;DHT22;11275;52.488;13.462;2023-02-02T04:30:08;6.40;99.90
22212;DHT22;11275;52.488;13.462;2023-02-02T04:32:34;6.50;99.90
22212;DHT22;11275;52.488;13.462;2023-02-02T04:35:00;6.50;99.90
22212;DHT22;11275;52.488;13.462;2023-02-02T04:37:25;6.50;99.90
22212;DHT22;11275;52.488;13.462;2023-02-02T04:39:50;6.50;99.90
22212;DHT22;11275;52.488;13.462;2023-02-02T04:42:18;6.50;99.90
22212;DHT22;11275;52.488;13.462;2023-02-02T04:44:43;6.50;99.90
22212;DHT22;11275;52.488;13.462;2023-02-02T04:47:10;6.60;99.90
22212;DHT22;11275;52.488;13.462;2023-02-02T04:49:35;6.60;99.90
22212;DHT22;11275;52.488;13.462;2023-02-02T04:52:02;6.60;99.90
22212;DHT22;11275;52.488;13.462;2023-02-02T04:54:27;6.60;99.90
22212;DHT22;11275;52.488;13.462;2023-02-02T04:56:53;6.60;99.90
22212;DHT22;11275;52.488;13.462;2023-02-02T04:59:18;6.50;99.90
22212;DHT22;11275;52.488;13.462;2023-02-02T05:01:44;6.40;99.90
22212;DHT22;11275;52.488;13.462;2023-02-02T05:04:10;6.50;99.90
22212;DHT22;11275;52.488;13.462;2023-02-02T05:06:35;6.40;99.90
22212;DHT22;11275;52.488;13.462;2023-02-02T05:09:01;6.60;99.90
22212;DHT22;11275;52.488;13.462;2023-02-02T05:11:26;6.50;99.90
22212;DHT22;11275;52.488;13.462;2023-02-02T05:13:53;6.50;99.90
22212;DHT22;11275;52.488;13.462;2023-02-02T05:16:18;6.50;99.90
22212;DHT22;11275;52.488;13.462;2023-02-02T05:18:48;6.50;99.90
22212;DHT22;11275;52.488;13.462;2023-02-02T05:21:14;6.50;99.90
22212;DHT22;11275;52.488;13.462;2023-02-02T05:23:39;6.60;99.90
22212;DHT22;11275;52.488;13.462;2023-02-02T05:26:05;6.50;99.90
22212;DHT22;11275;52.488;13.462;2023-02-02T05:28:30;6.50;99.90
22212;DHT22;11275;52.488;13.462;2023-02-02T05:30:55;6.50;99.90
22212;DHT22;11275;52.488;13.462;2023-02-02T05:33:21;6.60;99.90
22212;DHT22;11275;52.488;13.462;2023-02-02T05:35:47;6.60;99.90
22212;DHT22;11275;52.488;13.462;2023-02-02T05:38:13;6.50;99.90
22212;DHT22;11275;52.488;13.462;2023-02-02T05:40:39;6.50;99.90
22212;DHT22;11275;52.488;13.462;2023-02-02T05:43:05;6.50;99.90
22212;DHT22;11275;52.488;13.462;2023-02-02T05:45:30;6.60;99.90
22212;DHT22;11275;52.488;13.462;2023-02-02T05:47:57;6.60;99.90
22212;DHT22;11275;52.488;13.462;2023-02-02T05:50:23;6.50;99.90
22212;DHT22;11275;52.488;13.462;2023-02-02T05:52:48;6.60;99.90
22212;DHT22;11275;52.488;13.462;2023-02-02T05:55:14;6.50;99.90
22212;DHT22;11275;52.488;13.462;2023-02-02T05:57:39;6.60;99.90
22212;DHT22;11275;52.488;13.462;2023-02-02T06:00:05;6.60;99.90
22212;DHT22;11275;52.488;13.462;2023-02-02T06:02:31;6.60;99.90
22212;DHT22;11275;52.488;13.462;2023-02-02T06:04:56;6.50;99.90
22212;DHT22;11275;52.488;13.462;2023-02-02T06:07:22;6.50;99.90
22212;DHT22;11275;52.488;13.462;2023-02-02T06:09:48;6.50;99.90
22212;DHT22;11275;52.488;13.462;2023-02-02T06:12:13;6.50;99.90
22212;DHT22;11275;52.488;13.462;2023-02-02T06:14:39;6.40;99.90
22212;DHT22;11275;52.488;13.462;2023-02-02T06:17:05;6.40;99.90
22212;DHT22;11275;52.488;13.462;2023-02-02T06:19:31;6.50;99.90
22212;DHT22;11275;52.488;13.462;2023-02-02T06:21:56;6.50;99.90
22212;DHT22;11275;52.488;13.462;2023-02-02T06:24:22;6.60;99.90
22212;DHT22;11275;52.488;13.462;2023-02-02T06:26:48;6.60;99.90
22212;DHT22;11275;52.488;13.462;2023-02-02T06:29:14;6.60;99.90
22212;DHT22;11275;52.488;13.462;2023-02-02T06:31:42;6.70;99.90
22212;DHT22;11275;52.488;13.462;2023-02-02T06:34:08;6.70;99.90
22212;DHT22;11275;52.488;13.462;2023-02-02T06:36:35;6.60;99.90
22212;DHT22;11275;52.488;13.462;2023-02-02T06:39:00;6.70;99.90
22212;DHT22;11275;52.488;13.462;2023-02-02T06:41:29;6.60;99.90
22212;DHT22;11275;52.488;13.462;2023-02-02T06:43:54;6.70;99.90
22212;DHT22;11275;52.488;13.462;2023-02-02T06:46:20;6.60;99.90
22212;DHT22;11275;52.488;13.462;2023-02-02T06:48:45;6.60;99.90
22212;DHT22;11275;52.488;13.462;2023-02-02T06:51:11;6.70;99.90
22212;DHT22;11275;52.488;13.462;2023-02-02T06:53:36;6.70;99.90
22212;DHT22;11275;52.488;13.462;2023-02-02T06:56:03;6.60;99.90
22212;DHT22;11275;52.488;13.462;2023-02-02T06:58:29;6.60;99.90
22212;DHT22;11275;52.488;13.462;2023-02-02T07:00:59;6.50;99.90
22212;DHT22;11275;52.488;13.462;2023-02-02T07:03:25;6.40;99.90
22212;DHT22;11275;52.488;13.462;2023-02-02T07:05:50;6.50;99.90
22212;DHT22;11275;52.488;13.462;2023-02-02T07:08:16;6.50;99.90
22212;DHT22;11275;52.488;13.462;2023-02-02T07:10:42;6.50;99.90
22212;DHT22;11275;52.488;13.462;2023-02-02T07:13:08;6.50;99.90
22212;DHT22;11275;52.488;13.462;2023-02-02T07:15:34;6.50;99.90
22212;DHT22;11275;52.488;13.462;2023-02-02T07:17:59;6.40;99.90
22212;DHT22;11275;52.488;13.462;2023-02-02T07:20:26;6.40;99.90
22212;DHT22;11275;52.488;13.462;2023-02-02T07:22:51;6.50;99.90
22212;DHT22;11275;52.488;13.462;2023-02-02T07:25:17;6.50;99.90
22212;DHT22;11275;52.488;13.462;2023-02-02T07:27:42;6.60;99.90
22212;DHT22;11275;52.488;13.462;2023-02-02T07:30:08;6.60;99.90
22212;DHT22;11275;52.488;13.462;2023-02-02T07:32:34;6.60;99.90
22212;DHT22;11275;52.488;13.462;2023-02-02T07:34:59;6.50;99.90
22212;DHT22;11275;52.488;13.462;2023-02-02T07:37:25;6.50;99.90
22212;DHT22;11275;52.488;13.462;2023-02-02T07:39:50;6.40;99.90
22212;DHT22;11275;52.488;13.462;2023-02-02T07:42:16;6.40;99.90
22212;DHT22;11275;52.488;13.462;2023-02-02T07:44:41;6.40;99.90
22212;DHT22;11275;52.488;13.462;2023-02-02T07:47:07;6.30;99.90
22212;DHT22;11275;52.488;13.462;2023-02-02T07:49:32;6.40;99.90
22212;DHT22;11275;52.488;13.462;2023-02-02T07:51:58;6.40;99.90
22212;DHT22;11275;52.488;13.462;2023-02-02T07:54:23;6.30;99.90
22212;DHT22;11275;52.488;13.462;2023-02-02T07:56:49;6.30;99.90
22212;DHT22;11275;52.488;13.462;2023-02-02T07:59:15;6.30;99.90
22212;DHT22;11275;52.488;13.462;2023-02-02T08:01:40;6.30;99.90
22212;DHT22;11275;52.488;13.462;2023-02-02T08:04:06;6.40;99.90
22212;DHT22;11275;52.488;13.462;2023-02-02T08:06:32;6.30;99.90
22212;DHT22;11275;52.488;13.462;2023-02-02T08:08:58;6.30;99.90
22212;DHT22;11275;52.488;13.462;2023-02-02T08:11:25;6.30;99.90
22212;DHT22;11275;52.488;13.462;2023-02-02T08:13:51;6.30;99.90
22212;DHT22;11275;52.488;13.462;2023-02-02T08:16:17;6.30;99.90
22212;DHT22;11275;52.488;13.462;2023-02-02T08:18:43;6.30;99.90
22212;DHT22;11275;52.488;13.462;2023-02-02T08:21:08;6.30;99.90
22212;DHT22;11275;52.488;13.462;2023-02-02T08:23:35;6.30;99.90
22212;DHT22;11275;52.488;13.462;2023-02-02T08:26:20;6.30;99.90
22212;DHT22;11275;52.488;13.462;2023-02-02T08:28:47;6.30;99.90
22212;DHT22;11275;52.488;13.462;2023-02-02T08:31:14;6.30;99.90
22212;DHT22;11275;52.488;13.462;2023-02-02T08:33:40;6.40;99.90
22212;DHT22;11275;52.488;13.462;2023-02-02T08:36:13;6.40;99.90
22212;DHT22;11275;52.488;13.462;2023-02-02T08:38:39;6.40;99.90
22212;DHT22;11275;52.488;13.462;2023-02-02T08:41:05;6.40;99.90
22212;DHT22;11275;52.488;13.462;2023-02-02T08:43:31;6.40;99.90
22212;DHT22;11275;52.488;13.462;2023-02-02T08:45:56;6.50;99.90
22212;DHT22;11275;52.488;13.462;2023-02-02T08:48:22;6.50;99.90
22212;DHT22;11275;52.488;13.462;2023-02-02T08:50:57;6.50;99.90
22212;DHT22;11275;52.488;13.462;2023-02-02T08:53:23;6.50;99.90
22212;DHT22;11275;52.488;13.462;2023-02-02T08:55:56;6.50;99.90
22212;DHT22;11275;52.488;13.462;2023-02-02T08:58:22;6.60;99.90
22212;DHT22;11275;52.488;13.462;2023-02-02T09:00:47;6.50;99.90
22212;DHT22;11275;52.488;13.462;2023-02-02T09:03:14;6.60;99.90
22212;DHT22;11275;52.488;13.462;2023-02-02T09:05:40;6.60;99.90
22212;DHT22;11275;52.488;13.462;2023-02-02T09:08:05;6.60;99.90
22212;DHT22;11275;52.488;13.462;2023-02-02T09:10:33;6.70;99.90
22212;DHT22;11275;52.488;13.462;2023-02-02T09:12:59;6.90;99.90
22212;DHT22;11275;52.488;13.462;2023-02-02T09:15:24;7.10;99.90
22212;DHT22;11275;52.488;13.462;2023-02-02T09:17:50;7.20;99.90
22212;DHT22;11275;52.488;13.462;2023-02-02T09:20:16;7.20;99.90
22212;DHT22;11275;52.488;13.462;2023-02-02T09:22:41;7.30;99.90
22212;DHT22;11275;52.488;13.462;2023-02-02T09:25:07;7.30;99.90
22212;DHT22;11275;52.488;13.462;2023-02-02T09:27:36;7.40;99.90
22212;DHT22;11275;52.488;13.462;2023-02-02T09:30:01;7.30;99.90
22212;DHT22;11275;52.488;13.462;2023-02-02T09:32:27;7.50;99.90
22212;DHT22;11275;52.488;13.462;2023-02-02T09:34:52;7.40;99.90
22212;DHT22;11275;52.488;13.462;2023-02-02T09:37:18;7.30;99.90
22212;DHT22;11275;52.488;13.462;2023-02-02T09:39:43;7.50;99.90
22212;DHT22;11275;52.488;13.462;2023-02-02T09:42:43;7.50;99.90
22212;DHT22;11275;52.488;13.462;2023-02-02T09:45:03;7.60;99.90
22212;DHT22;11275;52.488;13.462;2023-02-02T09:47:33;7.70;99.90
22212;DHT22;11275;52.488;13.462;2023-02-02T09:52:54;7.70;99.90
22212;DHT22;11275;52.488;13.462;2023-02-02T09:57:58;7.70;99.90
22212;DHT22;11275;52.488;13.462;2023-02-02T10:00:33;7.80;99.90
22212;DHT22;11275;52.488;13.462;2023-02-02T10:03:09;7.70;99.90
22212;DHT22;11275;52.488;13.462;2023-02-02T10:05:54;7.70;99.90
22212;DHT22;11275;52.488;13.462;2023-02-02T10:08:23;7.90;99.90
22212;DHT22;11275;52.488;13.462;2023-02-02T10:10:51;8.00;99.90
22212;DHT22;11275;52.488;13.462;2023-02-02T10:13:19;8.10;99.90
22212;DHT22;11275;52.488;13.462;2023-02-02T10:20:59;7.90;99.90
22212;DHT22;11275;52.488;13.462;2023-02-02T10:25:54;7.80;99.90
22212;DHT22;11275;52.488;13.462;2023-02-02T10:28:24;7.90;99.90
22212;DHT22;11275;52.488;13.462;2023-02-02T10:30:54;7.90;99.90
22212;DHT22;11275;52.488;13.462;2023-02-02T10:36:03;8.10;99.90
22212;DHT22;11275;52.488;13.462;2023-02-02T10:46:16;7.80;99.90
22212;DHT22;11275;52.488;13.462;2023-02-02T10:48:44;7.90;99.90
22212;DHT22;11275;52.488;13.462;2023-02-02T10:51:20;7.90;99.90
22212;DHT22;11275;52.488;13.462;2023-02-02T10:53:54;8.00;99.90
22212;DHT22;11275;52.488;13.462;2023-02-02T10:56:29;8.70;99.90
22212;DHT22;11275;52.488;13.462;2023-02-02T10:59:00;8.90;99.90
22212;DHT22;11275;52.488;13.462;2023-02-02T11:01:27;8.80;99.90
22212;DHT22;11275;52.488;13.462;2023-02-02T11:03:52;8.60;99.90
22212;DHT22;11275;52.488;13.462;2023-02-02T11:06:38;8.60;99.90
22212;DHT22;11275;52.488;13.462;2023-02-02T11:09:20;8.70;99.90
22212;DHT22;11275;52.488;13.462;2023-02-02T11:11:47;8.60;99.90
22212;DHT22;11275;52.488;13.462;2023-02-02T11:14:15;8.50;99.90
22212;DHT22;11275;52.488;13.462;2023-02-02T11:16:44;8.50;99.90
22212;DHT22;11275;52.488;13.462;2023-02-02T11:21:43;8.60;99.90
22212;DHT22;11275;52.488;13.462;2023-02-02T11:27:00;8.60;99.90
22212;DHT22;11275;52.488;13.462;2023-02-02T11:29:28;8.60;99.90
22212;DHT22;11275;52.488;13.462;2023-02-02T11:31:55;8.70;99.90
22212;DHT22;11275;52.488;13.462;2023-02-02T11:34:24;8.70;99.90
22212;DHT22;11275;52.488;13.462;2023-02-02T11:39:22;8.70;99.90
22212;DHT22;11275;52.488;13.462;2023-02-02T11:41:47;8.70;99.90
22212;DHT22;11275;52.488;13.462;2023-02-02T11:44:23;8.70;99.90
22212;DHT22;11275;52.488;13.462;2023-02-02T11:46:50;8.90;99.90
22212;DHT22;11275;52.488;13.462;2023-02-02T11:49:16;8.90;99.90
22212;DHT22;11275;52.488;13.462;2023-02-02T11:51:44;9.10;99.90
22212;DHT22;11275;52.488;13.462;2023-02-02T11:54:40;9.10;99.90
22212;DHT22;11275;52.488;13.462;2023-02-02T11:57:08;8.90;99.90
22212;DHT22;11275;52.488;13.462;2023-02-02T11:59:41;8.90;99.90
22212;DHT22;11275;52.488;13.462;2023-02-02T12:04:42;8.70;99.90
22212;DHT22;11275;52.488;13.462;2023-02-02T12:07:17;8.80;99.90
22212;DHT22;11275;52.488;13.462;2023-02-02T12:09:44;8.80;99.90
22212;DHT22;11275;52.488;13.462;2023-02-02T12:12:23;8.60;99.90
22212;DHT22;11275;52.488;13.462;2023-02-02T12:25:00;8.70;99.90
22212;DHT22;11275;52.488;13.462;2023-02-02T12:35:32;8.60;99.90
22212;DHT22;11275;52.488;13.462;2023-02-02T12:38:19;8.60;99.90
22212;DHT22;11275;52.488;13.462;2023-02-02T12:41:02;8.50;99.90
22212;DHT22;11275;52.488;13.462;2023-02-02T12:48:49;8.00;99.90
22212;DHT22;11275;52.488;13.462;2023-02-02T13:06:51;8.10;99.90
22212;DHT22;11275;52.488;13.462;2023-02-02T13:11:54;8.10;99.90
22212;DHT22;11275;52.488;13.462;2023-02-02T13:14:29;8.00;99.90
22212;DHT22;11275;52.488;13.462;2023-02-02T13:17:00;8.00;99.90
22212;DHT22;11275;52.488;13.462;2023-02-02T13:21:58;8.20;99.90
22212;DHT22;11275;52.488;13.462;2023-02-02T13:24:26;8.10;99.90
22212;DHT22;11275;52.488;13.462;2023-02-02T13:26:54;8.20;99.90
22212;DHT22;11275;52.488;13.462;2023-02-02T13:29:34;8.10;99.90
22212;DHT22;11275;52.488;13.462;2023-02-02T13:32:06;8.00;99.90
22212;DHT22;11275;52.488;13.462;2023-02-02T13:34:40;8.00;99.90
22212;DHT22;11275;52.488;13.462;2023-02-02T13:37:27;8.20;99.90
22212;DHT22;11275;52.488;13.462;2023-02-02T13:42:35;8.10;99.90
22212;DHT22;11275;52.488;13.462;2023-02-02T13:47:53;8.10;99.90
22212;DHT22;11275;52.488;13.462;2023-02-02T13:50:20;7.70;99.90
22212;DHT22;11275;52.488;13.462;2023-02-02T13:52:51;7.70;99.90
22212;DHT22;11275;52.488;13.462;2023-02-02T13:55:30;7.80;99.90
22212;DHT22;11275;52.488;13.462;2023-02-02T14:00:39;8.20;99.90
22212;DHT22;11275;52.488;13.462;2023-02-02T14:03:19;8.20;99.90
22212;DHT22;11275;52.488;13.462;2023-02-02T14:06:00;8.10;99.90
22212;DHT22;11275;52.488;13.462;2023-02-02T14:08:26;7.90;99.90
22212;DHT22;11275;52.488;13.462;2023-02-02T14:13:22;7.30;99.90
22212;DHT22;11275;52.488;13.462;2023-02-02T14:16:17;7.30;99.90
22212;DHT22;11275;52.488;13.462;2023-02-02T14:31:54;6.70;99.90
22212;DHT22;11275;52.488;13.462;2023-02-02T14:34:36;6.70;99.90
22212;DHT22;11275;52.488;13.462;2023-02-02T14:39:53;7.20;99.90
22212;DHT22;11275;52.488;13.462;2023-02-02T14:53:14;6.70;99.90
22212;DHT22;11275;52.488;13.462;2023-02-02T14:58:22;6.80;99.90
22212;DHT22;11275;52.488;13.462;2023-02-02T15:00:53;6.70;99.90
22212;DHT22;11275;52.488;13.462;2023-02-02T15:03:30;6.70;99.90
22212;DHT22;11275;52.488;13.462;2023-02-02T15:06:03;6.70;99.90
22212;DHT22;11275;52.488;13.462;2023-02-02T15:08:32;6.70;99.90
22212;DHT22;11275;52.488;13.462;2023-02-02T15:10:59;6.80;99.90
22212;DHT22;11275;52.488;13.462;2023-02-02T15:13:27;6.80;99.90
22212;DHT22;11275;52.488;13.462;2023-02-02T15:16:02;6.80;99.90
22212;DHT22;11275;52.488;13.462;2023-02-02T15:18:33;6.70;99.90
22212;DHT22;11275;52.488;13.462;2023-02-02T15:21:04;6.70;99.90
22212;DHT22;11275;52.488;13.462;2023-02-02T15:23:32;6.60;99.90
22212;DHT22;11275;52.488;13.462;2023-02-02T15:30:57;6.40;99.90
22212;DHT22;11275;52.488;13.462;2023-02-02T15:33:29;6.30;99.90
22212;DHT22;11275;52.488;13.462;2023-02-02T15:35:56;6.20;99.90
22212;DHT22;11275;52.488;13.462;2023-02-02T15:38:24;6.20;99.90
22212;DHT22;11275;52.488;13.462;2023-02-02T15:40:54;6.20;99.90
22212;DHT22;11275;52.488;13.462;2023-02-02T15:43:20;6.10;99.90
22212;DHT22;11275;52.488;13.462;2023-02-02T15:45:52;6.00;99.90
22212;DHT22;11275;52.488;13.462;2023-02-02T15:48:26;5.90;99.90
22212;DHT22;11275;52.488;13.462;2023-02-02T15:50:55;5.80;99.90
22212;DHT22;11275;52.488;13.462;2023-02-02T15:53:25;5.70;99.90
22212;DHT22;11275;52.488;13.462;2023-02-02T15:55:51;5.70;99.90
22212;DHT22;11275;52.488;13.462;2023-02-02T15:58:21;5.70;99.90
22212;DHT22;11275;52.488;13.462;2023-02-02T16:00:53;5.70;99.90
22212;DHT22;11275;52.488;13.462;2023-02-02T16:03:21;5.70;99.90
22212;DHT22;11275;52.488;13.462;2023-02-02T16:05:48;5.60;99.90
22212;DHT22;11275;52.488;13.462;2023-02-02T16:08:18;5.60;99.90
22212;DHT22;11275;52.488;13.462;2023-02-02T16:10:45;5.50;99.90
22212;DHT22;11275;52.488;13.462;2023-02-02T16:13:26;5.50;99.90
22212;DHT22;11275;52.488;13.462;2023-02-02T16:15:56;5.40;99.90
22212;DHT22;11275;52.488;13.462;2023-02-02T16:18:21;5.50;99.90
22212;DHT22;11275;52.488;13.462;2023-02-02T16:20:47;5.40;99.90
22212;DHT22;11275;52.488;13.462;2023-02-02T16:23:14;5.30;99.90
22212;DHT22;11275;52.488;13.462;2023-02-02T16:25:43;5.40;99.90
22212;DHT22;11275;52.488;13.462;2023-02-02T16:28:12;5.30;99.90
22212;DHT22;11275;52.488;13.462;2023-02-02T16:30:38;5.30;99.90
22212;DHT22;11275;52.488;13.462;2023-02-02T16:35:48;5.40;99.90
22212;DHT22;11275;52.488;13.462;2023-02-02T16:38:24;5.30;99.90
22212;DHT22;11275;52.488;13.462;2023-02-02T16:43:28;5.50;99.90
22212;DHT22;11275;52.488;13.462;2023-02-02T16:45:55;5.50;99.90
22212;DHT22;11275;52.488;13.462;2023-02-02T16:48:33;5.50;99.90
22212;DHT22;11275;52.488;13.462;2023-02-02T16:53:40;5.30;99.90
22212;DHT22;11275;52.488;13.462;2023-02-02T16:56:06;5.30;99.90
22212;DHT22;11275;52.488;13.462;2023-02-02T16:58:34;5.30;99.90
22212;DHT22;11275;52.488;13.462;2023-02-02T17:01:04;5.30;99.90
22212;DHT22;11275;52.488;13.462;2023-02-02T17:03:32;5.20;99.90
22212;DHT22;11275;52.488;13.462;2023-02-02T17:05:58;5.30;99.90
22212;DHT22;11275;52.488;13.462;2023-02-02T17:08:34;5.30;99.90
22212;DHT22;11275;52.488;13.462;2023-02-02T17:15:55;5.40;99.90
22212;DHT22;11275;52.488;13.462;2023-02-02T17:18:21;5.40;99.90
22212;DHT22;11275;52.488;13.462;2023-02-02T17:20:46;5.50;99.90
22212;DHT22;11275;52.488;13.462;2023-02-02T17:23:18;5.40;99.90
22212;DHT22;11275;52.488;13.462;2023-02-02T17:25:44;5.40;99.90
22212;DHT22;11275;52.488;13.462;2023-02-02T17:28:11;5.50;99.90
22212;DHT22;11275;52.488;13.462;2023-02-02T17:30:38;5.60;99.90
22212;DHT22;11275;52.488;13.462;2023-02-02T17:33:04;5.60;99.90
22212;DHT22;11275;52.488;13.462;2023-02-02T17:35:30;5.50;99.90
22212;DHT22;11275;52.488;13.462;2023-02-02T17:37:55;5.50;99.90
22212;DHT22;11275;52.488;13.462;2023-02-02T17:40:22;5.40;99.90
22212;DHT22;11275;52.488;13.462;2023-02-02T17:42:49;5.40;99.90
22212;DHT22;11275;52.488;13.462;2023-02-02T17:47:40;5.40;99.90
22212;DHT22;11275;52.488;13.462;2023-02-02T17:50:06;5.40;99.90
22212;DHT22;11275;52.488;13.462;2023-02-02T17:52:31;5.40;99.90
22212;DHT22;11275;52.488;13.462;2023-02-02T17:54:57;5.40;99.90
22212;DHT22;11275;52.488;13.462;2023-02-02T17:57:22;5.30;99.90
22212;DHT22;11275;52.488;13.462;2023-02-02T17:59:48;5.30;99.90
22212;DHT22;11275;52.488;13.462;2023-02-02T18:02:13;5.30;99.90
22212;DHT22;11275;52.488;13.462;2023-02-02T18:04:40;5.30;99.90
22212;DHT22;11275;52.488;13.462;2023-02-02T18:07:05;5.40;99.90
22212;DHT22;11275;52.488;13.462;2023-02-02T18:09:31;5.40;99.90